S 386 Casilo — OZZP — position and weather

sailwx.info

Track history (hours):
 
Tides and Currents Weather Stations Pressure Air Temp Water Temp Dewpoint Dewpoint Depression Visibility Wind Speed Wind Dir Waves Ship Positions

S 386 Casilo

Last reported at 2016-Dec-05 12:14 UTC. Time now 2016-Dec-06 14:09 UTC.
Position N 57°40' E 008°22'.

Length 24 m.

Type: Fishing. MMSI: 219948000.

Date/timePositionNaut miles runAvg speedWind from/ knotsBaromVisibWave heightAir tempDewpointWater temp
2016-Dec-05 12:14N 57°40' E 008°22'1 2.1
2016-Dec-05 11:33N 57°39' E 008°20'43 2.6
2016-Dec-04 19:08N 57°36' E 009°39'4 6.2
2016-Dec-04 18:26N 57°36' E 009°47'6 1.5
2016-Dec-04 14:25N 57°38' E 009°58'18 9.3
2016-Dec-04 12:26N 57°56' E 010°10'9 9.7
2016-Dec-04 11:34N 58°04' E 010°14'9 8.7
2016-Dec-04 10:33N 58°13' E 010°17'1 1.4
2016-Dec-04 09:33N 58°12' E 010°15'2 1.9
2016-Dec-04 08:32N 58°12' E 010°11'  
2016-Dec-01 21:28N 57°48' E 010°24'6 6.4
2016-Dec-01 20:33N 57°47' E 010°35'4 4.1
2016-Dec-01 19:34N 57°44' E 010°39'2 0.5
2016-Dec-01 15:16N 57°43' E 010°36'0 0.0
2016-Dec-01 13:29N 57°43' E 010°36'0 0.0
2016-Dec-01 12:33N 57°43' E 010°36'4 4.3
2016-Dec-01 11:33N 57°45' E 010°43'8 8.2
2016-Dec-01 10:32N 57°52' E 010°51'8 8.0
2016-Dec-01 09:33N 57°59' E 010°58'8 8.4
2016-Dec-01 08:33N 58°07' E 011°04'11 8.7
2016-Dec-01 07:18N 58°17' E 011°11'5 6.1
2016-Dec-01 06:33N 58°21' E 011°14'0 0.0
2016-Dec-01 05:33N 58°21' E 011°14'6 5.8
2016-Dec-01 04:33N 58°17' E 011°06'26 3.2
2016-Nov-30 20:28N 58°12' E 010°17'  
Track history (hours):
 
Tides and Currents Weather Stations Pressure Air Temp Water Temp Dewpoint Dewpoint Depression Visibility Wind Speed Wind Dir Waves Ship Positions

S 386 Casilo

Last reported at 2016-Dec-05 12:14 UTC. Time now 2016-Dec-06 14:09 UTC.
Position N 57°40' E 008°22'.

Length 24 m.

Type: Fishing. MMSI: 219948000.

Date/timePositionNaut miles runAvg speedWind from/ knotsBaromVisibWave heightAir tempDewpointWater temp
2016-Dec-05 12:14N 57°40' E 008°22'1 2.1
2016-Dec-05 11:33N 57°39' E 008°20'43 2.6
2016-Dec-04 19:08N 57°36' E 009°39'4 6.2
2016-Dec-04 18:26N 57°36' E 009°47'6 1.5
2016-Dec-04 14:25N 57°38' E 009°58'18 9.3
2016-Dec-04 12:26N 57°56' E 010°10'9 9.7
2016-Dec-04 11:34N 58°04' E 010°14'9 8.7
2016-Dec-04 10:33N 58°13' E 010°17'1 1.4
2016-Dec-04 09:33N 58°12' E 010°15'2 1.9
2016-Dec-04 08:32N 58°12' E 010°11'  
2016-Dec-01 21:28N 57°48' E 010°24'6 6.4
2016-Dec-01 20:33N 57°47' E 010°35'4 4.1
2016-Dec-01 19:34N 57°44' E 010°39'2 0.5
2016-Dec-01 15:16N 57°43' E 010°36'0 0.0
2016-Dec-01 13:29N 57°43' E 010°36'0 0.0
2016-Dec-01 12:33N 57°43' E 010°36'4 4.3
2016-Dec-01 11:33N 57°45' E 010°43'8 8.2
2016-Dec-01 10:32N 57°52' E 010°51'8 8.0
2016-Dec-01 09:33N 57°59' E 010°58'8 8.4
2016-Dec-01 08:33N 58°07' E 011°04'11 8.7
2016-Dec-01 07:18N 58°17' E 011°11'5 6.1
2016-Dec-01 06:33N 58°21' E 011°14'0 0.0
2016-Dec-01 05:33N 58°21' E 011°14'6 5.8
2016-Dec-01 04:33N 58°17' E 011°06'26 3.2
2016-Nov-30 20:28N 58°12' E 010°17'  

Dump ship's entire track history